Flight Track Log - Related Links

Times and Time Zones

All times are in EDT time to prevent confusion due to time zone crossing. See the JZA8745 flight status page for this flight to view local times or setup timezone preferences in your user account.

Time Position Orientation Groundspeed Altitude Reporting Facility
EDT Latitude Longitude Course Direction KTS MPH feet Rate Location/Type
Sat 03:21:54 PM 47.5500 -65.8833 244° Southwest 150 173 5,600  Level Moncton Center
Sat 03:22:54 PM 47.5333 -65.9667 254° West 150 173 7,000 1,100 Climbing Moncton Center
Sat 03:23:54 PM 47.5167 -66.0333 250° West 190 219 7,800 950 Climbing Moncton Center
Sat 03:24:54 PM 47.5000 -66.1000 250° West 200 230 8,900 1,050 Climbing Moncton Center
Sat 03:25:54 PM 47.4833 -66.1833 254° West 200 230 9,900 1,000 Climbing Moncton Center
Sat 03:26:00 PM 47.3715 -66.4276 240° Southwest  Level FlightAware Approximate
Sat 03:26:54 PM 47.4500 -66.2500 234° Southwest 200 230 10,900  Level Moncton Center
Sat 03:27:00 PM 47.3399 -66.5139 244° Southwest  Level FlightAware Approximate
Sat 03:27:54 PM 47.4333 -66.3333 254° West 210 242 11,800  Level Moncton Center
Sat 03:28:54 PM 47.4000 -66.4333 244° Southwest 210 242 12,700 1,000 Climbing Moncton Center
Sat 03:29:54 PM 47.3833 -66.5000 250° West 210 242 13,800 950 Climbing Moncton Center
Sat 03:30:54 PM 47.3667 -66.5667 250° West 210 242 14,600 950 Climbing Moncton Center
Sat 03:31:54 PM 47.3333 -66.6500 239° Southwest 210 242 15,700 1,000 Climbing Moncton Center
Sat 03:32:54 PM 47.3000 -66.7167 234° Southwest 220 253 16,600 950 Climbing Moncton Center
Sat 03:33:54 PM 47.2667 -66.8167 244° Southwest 210 242 17,600 700 Climbing Moncton Center
Sat 03:34:54 PM 47.2500 -66.8833 250° West 220 253 18,000 600 Climbing Moncton Center
Sat 03:35:54 PM 47.2333 -66.9667 254° West 220 253 18,800 800 Climbing Moncton Center
Sat 03:36:54 PM 47.2000 -67.0500 240° Southwest 220 253 19,600 800 Climbing Moncton Center
Sat 03:37:54 PM 47.1833 -67.1333 254° West 220 253 20,400 700 Climbing Moncton Center
Sat 03:38:54 PM 47.1500 -67.2000 234° Southwest 220 253 21,000 600 Climbing Moncton Center
Sat 03:39:54 PM 47.1333 -67.3000 256° West 220 253 21,600 650 Climbing Moncton Center
Sat 03:40:54 PM 47.1167 -67.3667 250° West 220 253 22,300 541 Climbing Moncton Center
Sat 03:42:07 PM 47.0842 -67.4717 246° West 221 254 22,800 500 Climbing Boston Center
Sat 03:42:54 PM 47.0500 -67.5500 237° Southwest 220 253 23,300 561 Climbing Moncton Center
Sat 03:43:54 PM 47.0167 -67.6167 234° Southwest 220 253 23,800 350 Climbing Moncton Center
Sat 03:44:54 PM 47.0000 -67.7167 256° West 220 253 24,000 100 Climbing Moncton Center
Sat 03:45:54 PM 46.9667 -67.7833 234° Southwest 240 276 24,000  Level Moncton Center
Sat 03:46:54 PM 46.9500 -67.8833 256° West 250 288 24,000  Level Moncton Center
Sat 03:47:54 PM 46.9000 -67.9667 229° Southwest 250 288 24,000  Level Moncton Center
Sat 03:48:54 PM 46.8667 -68.0667 244° Southwest 260 299 24,000  Level Moncton Center
Sat 03:49:54 PM 46.8500 -68.1667 256° West 260 299 24,000  Level Moncton Center
Sat 03:50:54 PM 46.8167 -68.2667 244° Southwest 260 299 24,000  Level Moncton Center
Sat 03:51:54 PM 46.7833 -68.3500 240° Southwest 260 299 24,000  Level Moncton Center
Sat 03:53:07 PM 46.7594 -68.4611 253° West 259 298 24,000  Level Boston Center
Sat 03:54:07 PM 46.7372 -68.5417 248° West 265 305 24,000  Level Boston Center
Sat 03:55:07 PM 46.6931 -68.6567 241° Southwest 260 299 24,000  Level Boston Center
Sat 03:56:07 PM 46.6628 -68.7522 245° Southwest 260 299 24,000  Level Boston Center
Sat 03:57:07 PM 46.6303 -68.8483 244° Southwest 260 299 24,000  Level Boston Center
Sat 03:58:07 PM 46.6000 -68.9408 245° Southwest 260 299 24,000  Level Boston Center
Sat 03:59:07 PM 46.5672 -69.0364 244° Southwest 260 299 24,000  Level Boston Center
Sat 04:00:07 PM 46.5347 -69.1319 244° Southwest 266 306 24,000  Level Boston Center
Sat 04:01:07 PM 46.4997 -69.2275 242° Southwest 266 306 24,000  Level Boston Center
Sat 04:02:07 PM 46.4669 -69.3228 243° Southwest 266 306 24,000  Level Boston Center
Sat 04:03:07 PM 46.4339 -69.4147 242° Southwest 266 306 24,000  Level Boston Center
Sat 04:04:07 PM 46.4031 -69.5067 244° Southwest 261 300 24,000  Level Boston Center
Sat 04:05:07 PM 46.3700 -69.6017 243° Southwest 261 300 24,000  Level Boston Center
Sat 04:06:07 PM 46.3367 -69.6936 242° Southwest 261 300 24,000  Level Boston Center
Sat 04:07:08 PM 46.3056 -69.7853 244° Southwest 261 300 24,000  Level Boston Center
Sat 04:08:07 PM 46.2700 -69.8769 241° Southwest 261 300 24,000  Level Boston Center
Sat 04:09:07 PM 46.2367 -69.9656 241° Southwest 261 300 24,000  Level Boston Center
Sat 04:10:07 PM 46.2072 -70.0597 246° West 261 300 24,000  Level Boston Center
Sat 04:11:07 PM 46.1758 -70.1539 244° Southwest 261 300 24,000  Level Boston Center
Sat 04:11:54 PM 46.1500 -70.2167 239° Southwest 260 299 24,000  Level Moncton Center
Sat 04:12:46 PM 46.1500 -70.2833 270° West 250 288 24,000  Level Montreal Center
Sat 04:13:46 PM 46.1167 -70.3833 244° Southwest 240 276 24,000  Level Montreal Center
Sat 04:14:46 PM 46.1000 -70.4833 257° West 240 276 24,000  Level Montreal Center
Sat 04:15:46 PM 46.1000 -70.5667 270° West 240 276 24,000  Level Montreal Center
Sat 04:16:46 PM 46.0833 -70.6667 257° West 240 276 24,000  Level Montreal Center
Sat 04:17:46 PM 46.0667 -70.7500 254° West 230 265 24,000  Level Montreal Center
Sat 04:18:46 PM 46.0500 -70.8500 257° West 230 265 24,000  Level Montreal Center
Sat 04:19:46 PM 46.0500 -70.9333 270° West 230 265 24,000  Level Montreal Center
Sat 04:20:46 PM 46.0333 -71.0167 254° West 230 265 24,000 -50 Level Montreal Center
Sat 04:21:46 PM 46.0000 -71.1167 244° Southwest 230 265 23,900 -300 Descending Montreal Center
Sat 04:22:46 PM 45.9833 -71.2167 257° West 240 276 23,400 -550 Descending Montreal Center
Sat 04:23:46 PM 45.9833 -71.3167 270° West 250 288 22,800 -500 Descending Montreal Center
Sat 04:24:46 PM 45.9667 -71.4000 254° West 250 288 22,400 -450 Descending Montreal Center
Sat 04:25:46 PM 45.9667 -71.5000 270° West 250 288 21,900 -550 Descending Montreal Center
Sat 04:26:46 PM 45.9667 -71.6000 270° West 240 276 21,300 -550 Descending Montreal Center
Sat 04:27:46 PM 45.9833 -71.7000 284° West 240 276 20,800 -600 Descending Montreal Center
Sat 04:28:46 PM 45.9667 -71.8000 257° West 250 288 20,100 -700 Descending Montreal Center
Sat 04:29:46 PM 45.9667 -71.8833 270° West 250 288 19,400 -700 Descending Montreal Center
Sat 04:30:46 PM 45.9500 -71.9833 257° West 240 276 18,700 -700 Descending Montreal Center
Sat 04:31:46 PM 45.9500 -72.0833 270° West 240 276 18,000 -550 Descending Montreal Center
Sat 04:32:46 PM 45.9500 -72.1833 270° West 230 265 17,600 -550 Descending Montreal Center
Sat 04:33:46 PM 45.9500 -72.2833 270° West 240 276 16,900 -700 Descending Montreal Center
Sat 04:34:46 PM 45.9500 -72.3667 270° West 240 276 16,200 -700 Descending Montreal Center
Sat 04:35:46 PM 45.9333 -72.4667 257° West 230 265 15,500 -700 Descending Montreal Center
Sat 04:36:46 PM 45.9000 -72.5500 240° Southwest 250 288 14,800 -700 Descending Montreal Center
Sat 04:37:46 PM 45.8667 -72.6167 234° Southwest 260 299 14,100 -700 Descending Montreal Center
Sat 04:38:46 PM 45.8333 -72.7167 244° Southwest 260 299 13,400 -750 Descending Montreal Center
Sat 04:39:46 PM 45.7833 -72.8000 229° Southwest 260 299 12,600 -900 Descending Montreal Center
Sat 04:40:46 PM 45.7500 -72.9000 244° Southwest 270 311 11,600 -1,100 Descending Montreal Center
Sat 04:41:46 PM 45.7000 -73.0000 234° Southwest 270 311 10,400 -1,250 Descending Montreal Center
Sat 04:42:46 PM 45.7000 -73.0833 270° West 260 299 9,100 -1,250 Descending Montreal Center
Sat 04:43:46 PM 45.6833 -73.1833 257° West 230 265 7,900 -750 Descending Montreal Center
Sat 04:44:46 PM 45.6833 -73.2500 270° West 210 242 7,600 -650 Descending Montreal Center
Sat 04:45:46 PM 45.7000 -73.3500 283° West 230 265 6,600 -1,000 Descending Montreal Center
Sat 04:46:46 PM 45.7000 -73.4500 270° West 210 242 5,600 -800 Descending Montreal Center
Sat 04:47:46 PM 45.6500 -73.5000 215° Southwest 190 219 5,000 -850 Descending Montreal Center
Sat 04:48:46 PM 45.6167 -73.5500 226° Southwest 180 207 3,900 -1,050 Descending Montreal Center
Sat 04:49:46 PM 45.5833 -73.6000 226° Southwest 170 196 2,900 -1,000 Descending Montreal Center

Login

Don't have an account? Register now (free) for customized features, flight alerts, and more!